Ekwok, AK (99580)

4:34 AM AKDT on July 29, 2016 (GMT -0800)
New Stuyahok AP, New Stuyahok | | Change Station

Elev 302 ft 59.45 °N, 157.33 °W | Updated 38 minutes ago

Clear
Clear
52 °F
Feels Like 52 °F
N
12
Wind Variable Wind from SW

Today
High -- | Low -- °F
--% Chance of Precip.
Yesterday
High -- | Low -- °F
Precip. -- in
Pressure 30.12 in
Visibility 10.0 miles
Clouds Clear
Dew Point 50 °F
Humidity 93%
Rainfall 0.00 in
Snow Depth Not available.
6:10 AM 11:01 PM
Waning Crescent, 22% visible
METAR PANW 291156Z AUTO 22010KT 10SM CLR 11/10 A3008 RMK AO2 SLP200 T01110100 10172 20111 52009
Pressure 30.12 in
Visibility 10.0 miles
Clouds Clear
Dew Point 50 °F
Humidity 93%
Rainfall 0.00 in
Snow Depth Not available.
6:10 AM 11:01 PM
Waning Crescent, 22% visible
METAR PANW 291156Z AUTO 22010KT 10SM CLR 11/10 A3008 RMK AO2 SLP200 T01110100 10172 20111 52009

10-Day Weather Forecast

Almanac

Astronomy

Jul. 29, 2016 Rise Set
Actual Time
Civil Twilight
Nautical Twilight
Astronomical Twilight
Moon
Length of Visible Light
Length of Day
Tomorrow will be .
, % of the Moon is Illuminated

Today's Extremes

State Highs State Lows

Community

WunderPhotos

Upload Photos

1,928,335 photos uploaded!

WunderBlog® & News

Nearby

Air Quality

  Air Quality AQ Index Pollutant
Not available.

Snow Depth

Station Depth Elevation

Earthquake Activity

City Distance Mag. Time & Date
Minimum magnitude displayed is 2.5.

Coastal Water Temperatures

Place Temperature

Stations

Nearby Weather Stations

Station Location Temp. Windchill Dew Point Humidity Wind Precip. Elev Updated Type
                   

Watches & Warnings

There are currently no watches in effect.